sensor_id;sensor_type;location;lat;lon;timestamp;temperature;humidity
37998;DHT22;24079;51.824;4.682;2023-05-16T00:00:31;10.00;99.90
37998;DHT22;24079;51.824;4.682;2023-05-16T00:03:04;10.00;99.90
37998;DHT22;24079;51.824;4.682;2023-05-16T00:05:29;10.00;99.90
37998;DHT22;24079;51.824;4.682;2023-05-16T00:07:55;10.00;99.90
37998;DHT22;24079;51.824;4.682;2023-05-16T00:10:21;10.00;99.90
37998;DHT22;24079;51.824;4.682;2023-05-16T00:12:46;10.00;99.90
37998;DHT22;24079;51.824;4.682;2023-05-16T00:15:16;9.90;99.90
37998;DHT22;24079;51.824;4.682;2023-05-16T00:17:42;10.00;99.90
37998;DHT22;24079;51.824;4.682;2023-05-16T00:20:11;9.90;99.90
37998;DHT22;24079;51.824;4.682;2023-05-16T00:22:39;9.90;99.90
37998;DHT22;24079;51.824;4.682;2023-05-16T00:25:05;9.90;99.90
37998;DHT22;24079;51.824;4.682;2023-05-16T00:27:34;9.90;99.90
37998;DHT22;24079;51.824;4.682;2023-05-16T00:30:03;9.90;99.90
37998;DHT22;24079;51.824;4.682;2023-05-16T00:32:33;9.90;99.90
37998;DHT22;24079;51.824;4.682;2023-05-16T00:34:59;9.90;99.90
37998;DHT22;24079;51.824;4.682;2023-05-16T00:37:25;9.80;99.90
37998;DHT22;24079;51.824;4.682;2023-05-16T00:39:51;9.80;99.90
37998;DHT22;24079;51.824;4.682;2023-05-16T00:42:20;9.80;99.90
37998;DHT22;24079;51.824;4.682;2023-05-16T00:44:47;9.90;99.90
37998;DHT22;24079;51.824;4.682;2023-05-16T00:47:13;9.90;99.90
37998;DHT22;24079;51.824;4.682;2023-05-16T00:49:41;9.90;99.90
37998;DHT22;24079;51.824;4.682;2023-05-16T00:52:07;9.90;99.90
37998;DHT22;24079;51.824;4.682;2023-05-16T00:54:33;9.80;99.90
37998;DHT22;24079;51.824;4.682;2023-05-16T00:56:59;9.90;99.90
37998;DHT22;24079;51.824;4.682;2023-05-16T00:59:26;9.80;99.90
37998;DHT22;24079;51.824;4.682;2023-05-16T01:01:51;9.80;99.90
37998;DHT22;24079;51.824;4.682;2023-05-16T01:04:17;9.70;99.90
37998;DHT22;24079;51.824;4.682;2023-05-16T01:06:44;9.70;99.90
37998;DHT22;24079;51.824;4.682;2023-05-16T01:09:10;9.70;99.90
37998;DHT22;24079;51.824;4.682;2023-05-16T01:12:00;9.70;99.90
37998;DHT22;24079;51.824;4.682;2023-05-16T01:14:34;9.70;99.90
37998;DHT22;24079;51.824;4.682;2023-05-16T01:20:16;9.70;99.90
37998;DHT22;24079;51.824;4.682;2023-05-16T01:25:56;9.70;99.90
37998;DHT22;24079;51.824;4.682;2023-05-16T01:28:23;9.70;99.90
37998;DHT22;24079;51.824;4.682;2023-05-16T01:30:50;9.70;99.90
37998;DHT22;24079;51.824;4.682;2023-05-16T01:33:16;9.70;99.90
37998;DHT22;24079;51.824;4.682;2023-05-16T01:35:58;9.70;99.90
37998;DHT22;24079;51.824;4.682;2023-05-16T01:38:28;9.70;99.90
37998;DHT22;24079;51.824;4.682;2023-05-16T01:43:39;9.70;99.90
37998;DHT22;24079;51.824;4.682;2023-05-16T01:46:11;9.70;99.90
37998;DHT22;24079;51.824;4.682;2023-05-16T01:48:47;9.70;99.90
37998;DHT22;24079;51.824;4.682;2023-05-16T01:51:14;9.70;99.90
37998;DHT22;24079;51.824;4.682;2023-05-16T01:53:41;9.70;99.90
37998;DHT22;24079;51.824;4.682;2023-05-16T01:56:15;9.70;99.90
37998;DHT22;24079;51.824;4.682;2023-05-16T01:58:42;9.60;99.90
37998;DHT22;24079;51.824;4.682;2023-05-16T02:01:12;9.60;99.90
37998;DHT22;24079;51.824;4.682;2023-05-16T02:03:38;9.60;99.90
37998;DHT22;24079;51.824;4.682;2023-05-16T02:06:04;9.60;99.90
37998;DHT22;24079;51.824;4.682;2023-05-16T02:08:30;9.50;99.90
37998;DHT22;24079;51.824;4.682;2023-05-16T02:10:56;9.50;99.90
37998;DHT22;24079;51.824;4.682;2023-05-16T02:13:22;9.50;99.90
37998;DHT22;24079;51.824;4.682;2023-05-16T02:15:48;9.50;99.90
37998;DHT22;24079;51.824;4.682;2023-05-16T02:18:13;9.50;99.90
37998;DHT22;24079;51.824;4.682;2023-05-16T02:20:39;9.50;99.90
37998;DHT22;24079;51.824;4.682;2023-05-16T02:23:05;9.60;99.90
37998;DHT22;24079;51.824;4.682;2023-05-16T02:25:31;9.60;99.90
37998;DHT22;24079;51.824;4.682;2023-05-16T02:27:56;9.60;99.90
37998;DHT22;24079;51.824;4.682;2023-05-16T02:30:22;9.50;99.90
37998;DHT22;24079;51.824;4.682;2023-05-16T02:32:48;9.50;99.90
37998;DHT22;24079;51.824;4.682;2023-05-16T02:35:14;9.50;99.90
37998;DHT22;24079;51.824;4.682;2023-05-16T02:37:40;9.50;99.90
37998;DHT22;24079;51.824;4.682;2023-05-16T02:40:07;9.40;99.90
37998;DHT22;24079;51.824;4.682;2023-05-16T02:42:33;9.40;99.90
37998;DHT22;24079;51.824;4.682;2023-05-16T02:44:59;9.50;99.90
37998;DHT22;24079;51.824;4.682;2023-05-16T02:47:24;9.40;99.90
37998;DHT22;24079;51.824;4.682;2023-05-16T02:49:51;9.40;99.90
37998;DHT22;24079;51.824;4.682;2023-05-16T02:52:19;9.50;99.90
37998;DHT22;24079;51.824;4.682;2023-05-16T02:54:45;9.50;99.90
37998;DHT22;24079;51.824;4.682;2023-05-16T02:57:11;9.40;99.90
37998;DHT22;24079;51.824;4.682;2023-05-16T02:59:37;9.40;99.90
37998;DHT22;24079;51.824;4.682;2023-05-16T03:02:02;9.30;99.90
37998;DHT22;24079;51.824;4.682;2023-05-16T03:04:28;9.30;99.90
37998;DHT22;24079;51.824;4.682;2023-05-16T03:06:54;9.30;99.90
37998;DHT22;24079;51.824;4.682;2023-05-16T03:09:20;9.30;99.90
37998;DHT22;24079;51.824;4.682;2023-05-16T03:11:46;9.20;99.90
37998;DHT22;24079;51.824;4.682;2023-05-16T03:14:12;9.20;99.90
37998;DHT22;24079;51.824;4.682;2023-05-16T03:16:38;9.20;99.90
37998;DHT22;24079;51.824;4.682;2023-05-16T03:19:05;9.20;99.90
37998;DHT22;24079;51.824;4.682;2023-05-16T03:21:31;9.20;99.90
37998;DHT22;24079;51.824;4.682;2023-05-16T03:23:57;9.30;99.90
37998;DHT22;24079;51.824;4.682;2023-05-16T03:26:23;9.20;99.90
37998;DHT22;24079;51.824;4.682;2023-05-16T03:28:49;9.10;99.90
37998;DHT22;24079;51.824;4.682;2023-05-16T03:31:16;9.20;99.90
37998;DHT22;24079;51.824;4.682;2023-05-16T03:33:41;9.20;99.90
37998;DHT22;24079;51.824;4.682;2023-05-16T03:36:08;9.20;99.90
37998;DHT22;24079;51.824;4.682;2023-05-16T03:38:34;9.30;99.90
37998;DHT22;24079;51.824;4.682;2023-05-16T03:41:00;9.30;99.90
37998;DHT22;24079;51.824;4.682;2023-05-16T03:43:25;9.30;99.90
37998;DHT22;24079;51.824;4.682;2023-05-16T03:45:51;9.30;99.90
37998;DHT22;24079;51.824;4.682;2023-05-16T03:48:17;9.30;99.90
37998;DHT22;24079;51.824;4.682;2023-05-16T03:50:42;9.20;99.90
37998;DHT22;24079;51.824;4.682;2023-05-16T03:53:09;9.30;99.90
37998;DHT22;24079;51.824;4.682;2023-05-16T03:55:35;9.20;99.90
37998;DHT22;24079;51.824;4.682;2023-05-16T03:58:00;9.30;99.90
37998;DHT22;24079;51.824;4.682;2023-05-16T04:00:26;9.30;99.90
37998;DHT22;24079;51.824;4.682;2023-05-16T04:02:52;9.30;99.90
37998;DHT22;24079;51.824;4.682;2023-05-16T04:05:18;9.40;99.90
37998;DHT22;24079;51.824;4.682;2023-05-16T04:07:44;9.50;99.90
37998;DHT22;24079;51.824;4.682;2023-05-16T04:10:10;9.50;99.90
37998;DHT22;24079;51.824;4.682;2023-05-16T04:12:36;9.40;99.90
37998;DHT22;24079;51.824;4.682;2023-05-16T04:15:03;9.40;99.90
37998;DHT22;24079;51.824;4.682;2023-05-16T04:17:29;9.40;99.90
37998;DHT22;24079;51.824;4.682;2023-05-16T04:19:54;9.40;99.90
37998;DHT22;24079;51.824;4.682;2023-05-16T04:22:23;9.50;99.90
37998;DHT22;24079;51.824;4.682;2023-05-16T04:24:49;9.50;99.90
37998;DHT22;24079;51.824;4.682;2023-05-16T04:27:15;9.50;99.90
37998;DHT22;24079;51.824;4.682;2023-05-16T04:29:41;9.50;99.90
37998;DHT22;24079;51.824;4.682;2023-05-16T04:32:06;9.60;99.90
37998;DHT22;24079;51.824;4.682;2023-05-16T04:34:33;9.60;99.90
37998;DHT22;24079;51.824;4.682;2023-05-16T04:37:05;9.60;99.90
37998;DHT22;24079;51.824;4.682;2023-05-16T04:39:32;9.80;99.90
37998;DHT22;24079;51.824;4.682;2023-05-16T04:41:58;9.90;99.90
37998;DHT22;24079;51.824;4.682;2023-05-16T04:44:24;9.90;99.90
37998;DHT22;24079;51.824;4.682;2023-05-16T04:46:51;9.90;99.90
37998;DHT22;24079;51.824;4.682;2023-05-16T04:49:18;9.90;99.90
37998;DHT22;24079;51.824;4.682;2023-05-16T04:51:44;9.90;99.90
37998;DHT22;24079;51.824;4.682;2023-05-16T04:54:09;9.90;99.90
37998;DHT22;24079;51.824;4.682;2023-05-16T04:56:35;10.00;99.90
37998;DHT22;24079;51.824;4.682;2023-05-16T04:59:01;9.90;99.90
37998;DHT22;24079;51.824;4.682;2023-05-16T05:01:28;10.00;99.90
37998;DHT22;24079;51.824;4.682;2023-05-16T05:03:54;10.10;99.90
37998;DHT22;24079;51.824;4.682;2023-05-16T05:06:20;10.20;99.90
37998;DHT22;24079;51.824;4.682;2023-05-16T05:08:45;10.30;99.90
37998;DHT22;24079;51.824;4.682;2023-05-16T05:11:11;10.30;99.90
37998;DHT22;24079;51.824;4.682;2023-05-16T05:13:37;10.40;99.90
37998;DHT22;24079;51.824;4.682;2023-05-16T05:16:03;10.50;99.90
37998;DHT22;24079;51.824;4.682;2023-05-16T05:18:29;10.50;99.90
37998;DHT22;24079;51.824;4.682;2023-05-16T05:20:55;10.90;99.90
37998;DHT22;24079;51.824;4.682;2023-05-16T05:23:20;11.50;99.90
37998;DHT22;24079;51.824;4.682;2023-05-16T05:25:46;11.70;99.90
37998;DHT22;24079;51.824;4.682;2023-05-16T05:28:12;11.80;99.90
37998;DHT22;24079;51.824;4.682;2023-05-16T05:30:37;12.00;99.90
37998;DHT22;24079;51.824;4.682;2023-05-16T05:33:03;12.40;99.90
37998;DHT22;24079;51.824;4.682;2023-05-16T05:35:29;12.80;99.90
37998;DHT22;24079;51.824;4.682;2023-05-16T05:37:54;13.20;99.90
37998;DHT22;24079;51.824;4.682;2023-05-16T05:40:20;13.50;99.90
37998;DHT22;24079;51.824;4.682;2023-05-16T05:42:46;13.60;99.90
37998;DHT22;24079;51.824;4.682;2023-05-16T05:45:12;13.60;99.90
37998;DHT22;24079;51.824;4.682;2023-05-16T05:47:37;13.40;99.90
37998;DHT22;24079;51.824;4.682;2023-05-16T05:50:04;13.20;99.90
37998;DHT22;24079;51.824;4.682;2023-05-16T05:52:30;13.10;99.90
37998;DHT22;24079;51.824;4.682;2023-05-16T05:54:55;13.10;99.90
37998;DHT22;24079;51.824;4.682;2023-05-16T05:57:22;13.20;99.90
37998;DHT22;24079;51.824;4.682;2023-05-16T05:59:48;13.40;99.90
37998;DHT22;24079;51.824;4.682;2023-05-16T06:02:14;13.30;99.90
37998;DHT22;24079;51.824;4.682;2023-05-16T06:04:39;13.50;99.90
37998;DHT22;24079;51.824;4.682;2023-05-16T06:07:07;13.70;99.90
37998;DHT22;24079;51.824;4.682;2023-05-16T06:09:32;13.80;99.90
37998;DHT22;24079;51.824;4.682;2023-05-16T06:11:58;13.80;99.90
37998;DHT22;24079;51.824;4.682;2023-05-16T06:14:24;13.80;99.90
37998;DHT22;24079;51.824;4.682;2023-05-16T06:16:50;13.70;99.90
37998;DHT22;24079;51.824;4.682;2023-05-16T06:19:16;13.80;99.90
37998;DHT22;24079;51.824;4.682;2023-05-16T06:21:42;14.40;99.90
37998;DHT22;24079;51.824;4.682;2023-05-16T06:24:08;14.70;99.90
37998;DHT22;24079;51.824;4.682;2023-05-16T06:26:35;14.90;99.90
37998;DHT22;24079;51.824;4.682;2023-05-16T06:29:01;15.30;99.90
37998;DHT22;24079;51.824;4.682;2023-05-16T06:31:27;16.10;99.90
37998;DHT22;24079;51.824;4.682;2023-05-16T06:33:53;16.00;99.90
37998;DHT22;24079;51.824;4.682;2023-05-16T06:36:19;15.60;99.90
37998;DHT22;24079;51.824;4.682;2023-05-16T06:38:45;15.40;99.90
37998;DHT22;24079;51.824;4.682;2023-05-16T06:41:11;15.00;99.90
37998;DHT22;24079;51.824;4.682;2023-05-16T06:43:37;14.40;99.90
37998;DHT22;24079;51.824;4.682;2023-05-16T06:46:03;13.80;99.90
37998;DHT22;24079;51.824;4.682;2023-05-16T06:48:29;13.30;99.90
37998;DHT22;24079;51.824;4.682;2023-05-16T06:50:55;13.00;99.90
37998;DHT22;24079;51.824;4.682;2023-05-16T06:53:21;12.90;99.90
37998;DHT22;24079;51.824;4.682;2023-05-16T06:55:47;13.40;99.90
37998;DHT22;24079;51.824;4.682;2023-05-16T06:58:13;14.10;99.90
37998;DHT22;24079;51.824;4.682;2023-05-16T07:00:40;14.90;99.90
37998;DHT22;24079;51.824;4.682;2023-05-16T07:03:06;15.30;99.90
37998;DHT22;24079;51.824;4.682;2023-05-16T07:05:31;15.90;99.90
37998;DHT22;24079;51.824;4.682;2023-05-16T07:07:57;16.70;99.90
37998;DHT22;24079;51.824;4.682;2023-05-16T07:10:23;17.50;99.90
37998;DHT22;24079;51.824;4.682;2023-05-16T07:12:48;17.70;99.90
37998;DHT22;24079;51.824;4.682;2023-05-16T07:15:14;17.20;99.90
37998;DHT22;24079;51.824;4.682;2023-05-16T07:17:40;16.00;99.90
37998;DHT22;24079;51.824;4.682;2023-05-16T07:20:07;15.00;99.90
37998;DHT22;24079;51.824;4.682;2023-05-16T07:22:36;15.30;99.90
37998;DHT22;24079;51.824;4.682;2023-05-16T07:25:02;15.70;99.90
37998;DHT22;24079;51.824;4.682;2023-05-16T07:27:29;16.70;99.90
37998;DHT22;24079;51.824;4.682;2023-05-16T07:29:57;16.60;99.90
37998;DHT22;24079;51.824;4.682;2023-05-16T07:32:23;16.20;99.90
37998;DHT22;24079;51.824;4.682;2023-05-16T07:34:49;17.00;99.90
37998;DHT22;24079;51.824;4.682;2023-05-16T07:37:15;17.20;99.90
37998;DHT22;24079;51.824;4.682;2023-05-16T07:39:41;16.70;99.90
37998;DHT22;24079;51.824;4.682;2023-05-16T07:42:07;16.20;99.90
37998;DHT22;24079;51.824;4.682;2023-05-16T07:44:33;15.70;99.90
37998;DHT22;24079;51.824;4.682;2023-05-16T07:46:59;15.40;99.90
37998;DHT22;24079;51.824;4.682;2023-05-16T07:49:25;15.50;99.90
37998;DHT22;24079;51.824;4.682;2023-05-16T07:51:50;16.30;99.90
37998;DHT22;24079;51.824;4.682;2023-05-16T07:54:16;17.20;99.90
37998;DHT22;24079;51.824;4.682;2023-05-16T07:56:42;17.10;99.90
37998;DHT22;24079;51.824;4.682;2023-05-16T07:59:07;17.70;99.90
37998;DHT22;24079;51.824;4.682;2023-05-16T08:01:34;17.90;99.90
37998;DHT22;24079;51.824;4.682;2023-05-16T08:03:59;17.90;99.90
37998;DHT22;24079;51.824;4.682;2023-05-16T08:06:25;18.40;99.90
37998;DHT22;24079;51.824;4.682;2023-05-16T08:08:50;17.70;99.90
37998;DHT22;24079;51.824;4.682;2023-05-16T08:11:17;16.50;99.90
37998;DHT22;24079;51.824;4.682;2023-05-16T08:13:43;16.00;99.90
37998;DHT22;24079;51.824;4.682;2023-05-16T08:34:21;18.20;99.90
37998;DHT22;24079;51.824;4.682;2023-05-16T08:36:46;19.00;99.90
37998;DHT22;24079;51.824;4.682;2023-05-16T08:39:13;19.30;99.90
37998;DHT22;24079;51.824;4.682;2023-05-16T08:41:39;19.60;99.90
37998;DHT22;24079;51.824;4.682;2023-05-16T08:44:05;18.80;99.90
37998;DHT22;24079;51.824;4.682;2023-05-16T08:46:32;18.70;99.90
37998;DHT22;24079;51.824;4.682;2023-05-16T08:49:00;19.20;99.90
37998;DHT22;24079;51.824;4.682;2023-05-16T08:51:32;19.40;99.90
37998;DHT22;24079;51.824;4.682;2023-05-16T08:54:08;19.40;99.90
37998;DHT22;24079;51.824;4.682;2023-05-16T08:56:36;19.50;99.90
37998;DHT22;24079;51.824;4.682;2023-05-16T08:59:03;18.90;99.90
37998;DHT22;24079;51.824;4.682;2023-05-16T09:01:30;18.90;99.90
37998;DHT22;24079;51.824;4.682;2023-05-16T09:03:57;19.00;99.90
37998;DHT22;24079;51.824;4.682;2023-05-16T09:06:23;18.60;99.90
37998;DHT22;24079;51.824;4.682;2023-05-16T09:08:49;18.50;99.90
37998;DHT22;24079;51.824;4.682;2023-05-16T09:11:15;18.30;99.90
37998;DHT22;24079;51.824;4.682;2023-05-16T09:13:41;18.10;99.90
37998;DHT22;24079;51.824;4.682;2023-05-16T09:16:09;18.30;99.90
37998;DHT22;24079;51.824;4.682;2023-05-16T09:18:35;18.30;99.90
37998;DHT22;24079;51.824;4.682;2023-05-16T09:21:04;17.40;99.90
37998;DHT22;24079;51.824;4.682;2023-05-16T09:23:30;16.50;99.90
37998;DHT22;24079;51.824;4.682;2023-05-16T09:25:57;16.70;99.90
37998;DHT22;24079;51.824;4.682;2023-05-16T09:28:24;17.40;99.90
37998;DHT22;24079;51.824;4.682;2023-05-16T09:30:52;17.80;99.90
37998;DHT22;24079;51.824;4.682;2023-05-16T09:33:22;18.20;99.90
37998;DHT22;24079;51.824;4.682;2023-05-16T09:35:56;18.90;99.90
37998;DHT22;24079;51.824;4.682;2023-05-16T09:38:23;18.50;99.90
37998;DHT22;24079;51.824;4.682;2023-05-16T09:40:50;18.50;99.90
37998;DHT22;24079;51.824;4.682;2023-05-16T09:43:21;18.80;99.90
37998;DHT22;24079;51.824;4.682;2023-05-16T09:45:47;18.50;99.90
37998;DHT22;24079;51.824;4.682;2023-05-16T09:48:14;17.40;99.90
37998;DHT22;24079;51.824;4.682;2023-05-16T09:50:49;16.80;99.90
37998;DHT22;24079;51.824;4.682;2023-05-16T09:53:25;16.70;99.90
37998;DHT22;24079;51.824;4.682;2023-05-16T09:56:05;16.80;99.90
37998;DHT22;24079;51.824;4.682;2023-05-16T09:58:37;17.50;99.90
37998;DHT22;24079;51.824;4.682;2023-05-16T10:01:04;17.80;99.90
37998;DHT22;24079;51.824;4.682;2023-05-16T10:03:33;17.50;99.90
37998;DHT22;24079;51.824;4.682;2023-05-16T10:06:00;16.90;99.90
37998;DHT22;24079;51.824;4.682;2023-05-16T10:08:31;17.00;99.90
37998;DHT22;24079;51.824;4.682;2023-05-16T10:10:57;17.50;99.90
37998;DHT22;24079;51.824;4.682;2023-05-16T10:13:27;17.80;99.90
37998;DHT22;24079;51.824;4.682;2023-05-16T10:15:56;18.10;99.90
37998;DHT22;24079;51.824;4.682;2023-05-16T10:18:28;17.70;99.90
37998;DHT22;24079;51.824;4.682;2023-05-16T10:20:56;17.10;99.90
37998;DHT22;24079;51.824;4.682;2023-05-16T10:23:25;17.20;99.90
37998;DHT22;24079;51.824;4.682;2023-05-16T10:25:52;17.50;99.90
37998;DHT22;24079;51.824;4.682;2023-05-16T10:28:20;17.90;99.90
37998;DHT22;24079;51.824;4.682;2023-05-16T10:30:46;17.70;99.90
37998;DHT22;24079;51.824;4.682;2023-05-16T10:33:17;17.20;99.90
37998;DHT22;24079;51.824;4.682;2023-05-16T10:35:44;16.90;99.90
37998;DHT22;24079;51.824;4.682;2023-05-16T10:38:12;17.50;99.90
37998;DHT22;24079;51.824;4.682;2023-05-16T10:40:40;17.40;99.90
37998;DHT22;24079;51.824;4.682;2023-05-16T10:43:07;17.00;99.90
37998;DHT22;24079;51.824;4.682;2023-05-16T10:45:38;17.00;99.90
37998;DHT22;24079;51.824;4.682;2023-05-16T10:48:05;17.40;99.90
37998;DHT22;24079;51.824;4.682;2023-05-16T10:50:44;17.80;99.90
37998;DHT22;24079;51.824;4.682;2023-05-16T10:53:21;17.70;99.90
37998;DHT22;24079;51.824;4.682;2023-05-16T11:04:08;18.40;99.90
37998;DHT22;24079;51.824;4.682;2023-05-16T11:19:56;17.90;99.90
37998;DHT22;24079;51.824;4.682;2023-05-16T11:22:31;18.00;99.90
37998;DHT22;24079;51.824;4.682;2023-05-16T11:25:01;18.30;99.90
37998;DHT22;24079;51.824;4.682;2023-05-16T11:27:45;18.10;99.90
37998;DHT22;24079;51.824;4.682;2023-05-16T11:30:13;17.70;99.90
37998;DHT22;24079;51.824;4.682;2023-05-16T11:32:41;17.50;99.90
37998;DHT22;24079;51.824;4.682;2023-05-16T11:35:10;16.80;99.90
37998;DHT22;24079;51.824;4.682;2023-05-16T11:37:36;16.80;99.90
37998;DHT22;24079;51.824;4.682;2023-05-16T11:40:04;17.20;99.90
37998;DHT22;24079;51.824;4.682;2023-05-16T11:42:38;17.50;99.90
37998;DHT22;24079;51.824;4.682;2023-05-16T11:45:08;17.80;99.90
37998;DHT22;24079;51.824;4.682;2023-05-16T11:47:36;18.10;99.90
37998;DHT22;24079;51.824;4.682;2023-05-16T11:50:09;18.00;99.90
37998;DHT22;24079;51.824;4.682;2023-05-16T11:52:36;17.90;99.90
37998;DHT22;24079;51.824;4.682;2023-05-16T11:55:04;18.20;99.90
37998;DHT22;24079;51.824;4.682;2023-05-16T11:57:30;18.00;99.90
37998;DHT22;24079;51.824;4.682;2023-05-16T12:00:02;17.80;99.90
37998;DHT22;24079;51.824;4.682;2023-05-16T12:02:28;18.20;99.90
37998;DHT22;24079;51.824;4.682;2023-05-16T12:04:54;18.40;99.90
37998;DHT22;24079;51.824;4.682;2023-05-16T12:07:20;18.60;99.90
37998;DHT22;24079;51.824;4.682;2023-05-16T12:09:52;18.60;99.90
37998;DHT22;24079;51.824;4.682;2023-05-16T12:12:21;18.50;99.90
37998;DHT22;24079;51.824;4.682;2023-05-16T12:14:47;18.30;99.90
37998;DHT22;24079;51.824;4.682;2023-05-16T12:17:13;18.10;99.90
37998;DHT22;24079;51.824;4.682;2023-05-16T12:19:40;17.60;99.90
37998;DHT22;24079;51.824;4.682;2023-05-16T12:22:18;17.80;99.90
37998;DHT22;24079;51.824;4.682;2023-05-16T12:24:44;17.60;99.90
37998;DHT22;24079;51.824;4.682;2023-05-16T12:27:11;17.50;99.90
37998;DHT22;24079;51.824;4.682;2023-05-16T12:29:38;17.70;99.90
37998;DHT22;24079;51.824;4.682;2023-05-16T12:32:06;17.60;99.90
37998;DHT22;24079;51.824;4.682;2023-05-16T12:34:32;17.40;99.90
37998;DHT22;24079;51.824;4.682;2023-05-16T12:36:58;17.60;99.90
37998;DHT22;24079;51.824;4.682;2023-05-16T12:39:26;18.10;99.90
37998;DHT22;24079;51.824;4.682;2023-05-16T12:41:52;18.50;99.90
37998;DHT22;24079;51.824;4.682;2023-05-16T12:44:18;18.50;99.90
37998;DHT22;24079;51.824;4.682;2023-05-16T12:46:46;18.60;99.90
37998;DHT22;24079;51.824;4.682;2023-05-16T12:49:13;18.20;99.90
37998;DHT22;24079;51.824;4.682;2023-05-16T12:51:39;17.80;99.90
37998;DHT22;24079;51.824;4.682;2023-05-16T12:54:07;17.60;99.90
37998;DHT22;24079;51.824;4.682;2023-05-16T12:56:34;17.80;99.90
37998;DHT22;24079;51.824;4.682;2023-05-16T12:59:01;17.60;99.90
37998;DHT22;24079;51.824;4.682;2023-05-16T13:01:27;17.30;99.90
37998;DHT22;24079;51.824;4.682;2023-05-16T13:03:53;17.50;99.90
37998;DHT22;24079;51.824;4.682;2023-05-16T13:06:19;17.60;99.90
37998;DHT22;24079;51.824;4.682;2023-05-16T13:08:45;17.80;99.90
37998;DHT22;24079;51.824;4.682;2023-05-16T13:11:11;17.60;99.90
37998;DHT22;24079;51.824;4.682;2023-05-16T13:13:37;17.60;99.90
37998;DHT22;24079;51.824;4.682;2023-05-16T13:16:03;17.50;99.90
37998;DHT22;24079;51.824;4.682;2023-05-16T13:18:29;17.40;99.90
37998;DHT22;24079;51.824;4.682;2023-05-16T13:20:56;17.30;99.90
37998;DHT22;24079;51.824;4.682;2023-05-16T13:23:22;17.30;99.90
37998;DHT22;24079;51.824;4.682;2023-05-16T13:25:48;17.30;99.90
37998;DHT22;24079;51.824;4.682;2023-05-16T13:28:14;17.50;99.90
37998;DHT22;24079;51.824;4.682;2023-05-16T13:30:40;17.60;99.90
37998;DHT22;24079;51.824;4.682;2023-05-16T13:33:06;17.50;99.90
37998;DHT22;24079;51.824;4.682;2023-05-16T13:35:32;17.40;99.90
37998;DHT22;24079;51.824;4.682;2023-05-16T13:37:58;17.80;99.90
37998;DHT22;24079;51.824;4.682;2023-05-16T13:40:24;18.20;99.90
37998;DHT22;24079;51.824;4.682;2023-05-16T13:42:50;18.20;99.90
37998;DHT22;24079;51.824;4.682;2023-05-16T13:45:16;18.20;99.90
37998;DHT22;24079;51.824;4.682;2023-05-16T13:47:43;18.10;99.90
37998;DHT22;24079;51.824;4.682;2023-05-16T13:50:09;18.20;99.90
37998;DHT22;24079;51.824;4.682;2023-05-16T13:52:38;18.20;99.90
37998;DHT22;24079;51.824;4.682;2023-05-16T13:55:05;18.00;99.90
37998;DHT22;24079;51.824;4.682;2023-05-16T13:57:31;17.60;99.90
37998;DHT22;24079;51.824;4.682;2023-05-16T13:59:57;17.30;99.90
37998;DHT22;24079;51.824;4.682;2023-05-16T14:02:24;17.20;99.90
37998;DHT22;24079;51.824;4.682;2023-05-16T14:04:51;17.20;99.90
37998;DHT22;24079;51.824;4.682;2023-05-16T14:07:18;17.20;99.90
37998;DHT22;24079;51.824;4.682;2023-05-16T14:09:44;17.10;99.90
37998;DHT22;24079;51.824;4.682;2023-05-16T14:12:10;16.80;99.90
37998;DHT22;24079;51.824;4.682;2023-05-16T14:14:37;16.60;99.90
37998;DHT22;24079;51.824;4.682;2023-05-16T14:17:03;16.70;99.90
37998;DHT22;24079;51.824;4.682;2023-05-16T14:19:29;16.70;99.90
37998;DHT22;24079;51.824;4.682;2023-05-16T14:21:55;16.90;99.90
37998;DHT22;24079;51.824;4.682;2023-05-16T14:24:21;16.90;99.90
37998;DHT22;24079;51.824;4.682;2023-05-16T14:26:47;17.00;99.90
37998;DHT22;24079;51.824;4.682;2023-05-16T14:29:12;16.60;99.90
37998;DHT22;24079;51.824;4.682;2023-05-16T14:31:39;16.30;99.90
37998;DHT22;24079;51.824;4.682;2023-05-16T14:34:05;16.30;99.90
37998;DHT22;24079;51.824;4.682;2023-05-16T14:36:30;16.50;99.90
37998;DHT22;24079;51.824;4.682;2023-05-16T14:38:56;16.70;99.90
37998;DHT22;24079;51.824;4.682;2023-05-16T14:41:22;16.80;99.90
37998;DHT22;24079;51.824;4.682;2023-05-16T14:43:49;17.20;99.90
37998;DHT22;24079;51.824;4.682;2023-05-16T14:46:15;17.20;99.90
37998;DHT22;24079;51.824;4.682;2023-05-16T14:48:41;16.90;99.90
37998;DHT22;24079;51.824;4.682;2023-05-16T14:51:07;16.50;99.90
37998;DHT22;24079;51.824;4.682;2023-05-16T14:53:33;16.30;99.90
37998;DHT22;24079;51.824;4.682;2023-05-16T14:56:00;16.40;99.90
37998;DHT22;24079;51.824;4.682;2023-05-16T14:58:28;16.60;99.90
37998;DHT22;24079;51.824;4.682;2023-05-16T15:00:54;16.80;99.90
37998;DHT22;24079;51.824;4.682;2023-05-16T15:03:20;16.60;99.90
37998;DHT22;24079;51.824;4.682;2023-05-16T15:05:46;16.30;99.90
37998;DHT22;24079;51.824;4.682;2023-05-16T15:08:12;16.10;99.90
37998;DHT22;24079;51.824;4.682;2023-05-16T15:10:38;16.20;99.90
37998;DHT22;24079;51.824;4.682;2023-05-16T15:13:04;16.30;99.90
37998;DHT22;24079;51.824;4.682;2023-05-16T15:15:30;16.10;99.90
37998;DHT22;24079;51.824;4.682;2023-05-16T15:17:57;16.10;99.90
37998;DHT22;24079;51.824;4.682;2023-05-16T15:20:23;16.30;99.90
37998;DHT22;24079;51.824;4.682;2023-05-16T15:22:50;16.50;99.90
37998;DHT22;24079;51.824;4.682;2023-05-16T15:25:16;16.70;99.90
37998;DHT22;24079;51.824;4.682;2023-05-16T15:27:42;16.80;99.90
37998;DHT22;24079;51.824;4.682;2023-05-16T15:30:08;16.80;99.90
37998;DHT22;24079;51.824;4.682;2023-05-16T15:32:34;17.00;99.90
37998;DHT22;24079;51.824;4.682;2023-05-16T15:35:00;17.00;99.90
37998;DHT22;24079;51.824;4.682;2023-05-16T15:37:26;16.80;99.90
37998;DHT22;24079;51.824;4.682;2023-05-16T15:39:52;16.80;99.90
37998;DHT22;24079;51.824;4.682;2023-05-16T15:42:17;16.70;99.90
37998;DHT22;24079;51.824;4.682;2023-05-16T15:44:46;16.90;99.90
37998;DHT22;24079;51.824;4.682;2023-05-16T15:47:11;17.10;99.90
37998;DHT22;24079;51.824;4.682;2023-05-16T15:49:37;17.10;99.90
37998;DHT22;24079;51.824;4.682;2023-05-16T15:52:03;17.00;99.90
37998;DHT22;24079;51.824;4.682;2023-05-16T15:54:28;16.90;99.90
37998;DHT22;24079;51.824;4.682;2023-05-16T15:56:54;16.60;99.90
37998;DHT22;24079;51.824;4.682;2023-05-16T15:59:20;16.40;99.90
37998;DHT22;24079;51.824;4.682;2023-05-16T16:01:45;16.40;99.90
37998;DHT22;24079;51.824;4.682;2023-05-16T16:04:11;16.40;99.90
37998;DHT22;24079;51.824;4.682;2023-05-16T16:06:36;16.50;99.90
37998;DHT22;24079;51.824;4.682;2023-05-16T16:09:02;16.30;99.90
37998;DHT22;24079;51.824;4.682;2023-05-16T16:11:28;16.20;99.90
37998;DHT22;24079;51.824;4.682;2023-05-16T16:13:54;16.00;99.90
37998;DHT22;24079;51.824;4.682;2023-05-16T16:16:19;15.80;99.90
37998;DHT22;24079;51.824;4.682;2023-05-16T16:18:45;15.70;99.90
37998;DHT22;24079;51.824;4.682;2023-05-16T16:21:11;15.70;99.90